sensor_id;sensor_type;location;lat;lon;timestamp;temperature;humidity
24049;DHT22;12250;50.956;4.746;2023-07-20T00:00:29;15.00;99.90
24049;DHT22;12250;50.956;4.746;2023-07-20T00:03:13;15.00;99.90
24049;DHT22;12250;50.956;4.746;2023-07-20T00:05:43;15.00;99.90
24049;DHT22;12250;50.956;4.746;2023-07-20T00:08:10;15.00;99.90
24049;DHT22;12250;50.956;4.746;2023-07-20T00:10:36;15.10;99.90
24049;DHT22;12250;50.956;4.746;2023-07-20T00:13:01;15.20;99.90
24049;DHT22;12250;50.956;4.746;2023-07-20T00:15:27;15.30;99.90
24049;DHT22;12250;50.956;4.746;2023-07-20T00:17:53;15.40;99.90
24049;DHT22;12250;50.956;4.746;2023-07-20T00:20:18;15.50;99.90
24049;DHT22;12250;50.956;4.746;2023-07-20T00:22:44;15.60;99.90
24049;DHT22;12250;50.956;4.746;2023-07-20T00:25:10;15.60;99.90
24049;DHT22;12250;50.956;4.746;2023-07-20T00:27:37;15.70;99.90
24049;DHT22;12250;50.956;4.746;2023-07-20T00:30:04;15.70;99.90
24049;DHT22;12250;50.956;4.746;2023-07-20T00:32:30;15.70;99.90
24049;DHT22;12250;50.956;4.746;2023-07-20T00:34:55;15.80;99.90
24049;DHT22;12250;50.956;4.746;2023-07-20T00:37:21;15.80;99.90
24049;DHT22;12250;50.956;4.746;2023-07-20T00:39:46;15.80;99.90
24049;DHT22;12250;50.956;4.746;2023-07-20T00:42:12;15.80;99.90
24049;DHT22;12250;50.956;4.746;2023-07-20T00:44:38;15.90;99.90
24049;DHT22;12250;50.956;4.746;2023-07-20T00:47:04;15.90;99.90
24049;DHT22;12250;50.956;4.746;2023-07-20T00:49:31;16.00;99.90
24049;DHT22;12250;50.956;4.746;2023-07-20T00:51:57;16.00;99.90
24049;DHT22;12250;50.956;4.746;2023-07-20T00:54:23;16.10;99.90
24049;DHT22;12250;50.956;4.746;2023-07-20T00:56:49;16.10;99.90
24049;DHT22;12250;50.956;4.746;2023-07-20T00:59:15;16.10;99.90
24049;DHT22;12250;50.956;4.746;2023-07-20T01:01:41;16.20;99.90
24049;DHT22;12250;50.956;4.746;2023-07-20T01:04:07;16.20;99.90
24049;DHT22;12250;50.956;4.746;2023-07-20T01:12:05;16.30;99.90
24049;DHT22;12250;50.956;4.746;2023-07-20T01:14:32;16.20;99.90
24049;DHT22;12250;50.956;4.746;2023-07-20T01:16:59;16.20;99.90
24049;DHT22;12250;50.956;4.746;2023-07-20T01:19:25;16.10;99.90
24049;DHT22;12250;50.956;4.746;2023-07-20T01:24:56;15.80;99.90
24049;DHT22;12250;50.956;4.746;2023-07-20T01:32:55;15.50;99.90
24049;DHT22;12250;50.956;4.746;2023-07-20T01:35:23;15.40;99.90
24049;DHT22;12250;50.956;4.746;2023-07-20T01:37:51;15.40;99.90
24049;DHT22;12250;50.956;4.746;2023-07-20T01:40:19;15.40;99.90
24049;DHT22;12250;50.956;4.746;2023-07-20T01:42:46;15.30;99.90
24049;DHT22;12250;50.956;4.746;2023-07-20T01:45:12;15.30;99.90
24049;DHT22;12250;50.956;4.746;2023-07-20T01:47:38;15.20;99.90
24049;DHT22;12250;50.956;4.746;2023-07-20T01:50:04;15.30;99.90
24049;DHT22;12250;50.956;4.746;2023-07-20T01:52:30;15.30;99.90
24049;DHT22;12250;50.956;4.746;2023-07-20T01:54:56;15.30;99.90
24049;DHT22;12250;50.956;4.746;2023-07-20T01:57:21;15.30;99.90
24049;DHT22;12250;50.956;4.746;2023-07-20T01:59:47;15.30;99.90
24049;DHT22;12250;50.956;4.746;2023-07-20T02:02:13;15.30;99.90
24049;DHT22;12250;50.956;4.746;2023-07-20T02:04:38;15.30;99.90
24049;DHT22;12250;50.956;4.746;2023-07-20T02:07:04;15.30;99.90
24049;DHT22;12250;50.956;4.746;2023-07-20T02:09:30;15.20;99.90
24049;DHT22;12250;50.956;4.746;2023-07-20T02:11:56;15.20;99.90
24049;DHT22;12250;50.956;4.746;2023-07-20T02:14:21;15.00;99.90
24049;DHT22;12250;50.956;4.746;2023-07-20T02:16:48;15.00;99.90
24049;DHT22;12250;50.956;4.746;2023-07-20T02:19:20;14.90;99.90
24049;DHT22;12250;50.956;4.746;2023-07-20T02:21:46;14.90;99.90
24049;DHT22;12250;50.956;4.746;2023-07-20T02:24:12;14.90;99.90
24049;DHT22;12250;50.956;4.746;2023-07-20T02:26:38;14.90;99.90
24049;DHT22;12250;50.956;4.746;2023-07-20T02:29:04;15.00;99.90
24049;DHT22;12250;50.956;4.746;2023-07-20T02:31:30;15.00;99.90
24049;DHT22;12250;50.956;4.746;2023-07-20T02:33:56;15.10;99.90
24049;DHT22;12250;50.956;4.746;2023-07-20T02:36:22;15.20;99.90
24049;DHT22;12250;50.956;4.746;2023-07-20T02:38:47;15.10;99.90
24049;DHT22;12250;50.956;4.746;2023-07-20T02:41:13;15.10;99.90
24049;DHT22;12250;50.956;4.746;2023-07-20T02:43:39;15.00;99.90
24049;DHT22;12250;50.956;4.746;2023-07-20T02:46:05;14.90;99.90
24049;DHT22;12250;50.956;4.746;2023-07-20T02:48:30;14.90;99.90
24049;DHT22;12250;50.956;4.746;2023-07-20T02:50:56;14.80;99.90
24049;DHT22;12250;50.956;4.746;2023-07-20T02:53:22;14.70;99.90
24049;DHT22;12250;50.956;4.746;2023-07-20T02:55:47;14.70;99.90
24049;DHT22;12250;50.956;4.746;2023-07-20T02:58:14;14.70;99.90
24049;DHT22;12250;50.956;4.746;2023-07-20T03:00:42;14.60;99.90
24049;DHT22;12250;50.956;4.746;2023-07-20T03:03:08;14.60;99.90
24049;DHT22;12250;50.956;4.746;2023-07-20T03:05:35;14.60;99.90
24049;DHT22;12250;50.956;4.746;2023-07-20T03:08:03;14.60;99.90
24049;DHT22;12250;50.956;4.746;2023-07-20T03:10:31;14.60;99.90
24049;DHT22;12250;50.956;4.746;2023-07-20T03:12:58;14.60;99.90
24049;DHT22;12250;50.956;4.746;2023-07-20T03:15:23;14.50;99.90
24049;DHT22;12250;50.956;4.746;2023-07-20T03:17:49;14.50;99.90
24049;DHT22;12250;50.956;4.746;2023-07-20T03:20:15;14.40;99.90
24049;DHT22;12250;50.956;4.746;2023-07-20T03:22:41;14.40;99.90
24049;DHT22;12250;50.956;4.746;2023-07-20T03:25:07;14.40;99.90
24049;DHT22;12250;50.956;4.746;2023-07-20T03:27:33;14.40;99.90
24049;DHT22;12250;50.956;4.746;2023-07-20T03:29:59;14.40;99.90
24049;DHT22;12250;50.956;4.746;2023-07-20T03:32:24;14.30;99.90
24049;DHT22;12250;50.956;4.746;2023-07-20T03:34:50;14.30;99.90
24049;DHT22;12250;50.956;4.746;2023-07-20T03:37:16;14.30;99.90
24049;DHT22;12250;50.956;4.746;2023-07-20T03:39:41;14.30;99.90
24049;DHT22;12250;50.956;4.746;2023-07-20T03:42:07;14.30;99.90
24049;DHT22;12250;50.956;4.746;2023-07-20T03:44:33;14.40;99.90
24049;DHT22;12250;50.956;4.746;2023-07-20T03:46:59;14.40;99.90
24049;DHT22;12250;50.956;4.746;2023-07-20T03:49:24;14.40;99.90
24049;DHT22;12250;50.956;4.746;2023-07-20T03:51:50;14.50;99.90
24049;DHT22;12250;50.956;4.746;2023-07-20T03:54:16;14.50;99.90
24049;DHT22;12250;50.956;4.746;2023-07-20T03:56:41;14.50;99.90
24049;DHT22;12250;50.956;4.746;2023-07-20T03:59:07;14.60;99.90
24049;DHT22;12250;50.956;4.746;2023-07-20T04:01:33;14.60;99.90
24049;DHT22;12250;50.956;4.746;2023-07-20T04:04:06;14.70;99.90
24049;DHT22;12250;50.956;4.746;2023-07-20T04:06:32;14.80;99.90
24049;DHT22;12250;50.956;4.746;2023-07-20T04:08:58;14.90;99.90
24049;DHT22;12250;50.956;4.746;2023-07-20T04:11:23;15.00;99.90
24049;DHT22;12250;50.956;4.746;2023-07-20T04:13:49;15.00;99.90
24049;DHT22;12250;50.956;4.746;2023-07-20T04:16:15;15.00;99.90
24049;DHT22;12250;50.956;4.746;2023-07-20T04:18:40;15.10;99.90
24049;DHT22;12250;50.956;4.746;2023-07-20T04:21:08;15.10;99.90
24049;DHT22;12250;50.956;4.746;2023-07-20T04:23:33;15.10;99.90
24049;DHT22;12250;50.956;4.746;2023-07-20T04:26:00;15.10;99.90
24049;DHT22;12250;50.956;4.746;2023-07-20T04:28:26;15.10;99.90
24049;DHT22;12250;50.956;4.746;2023-07-20T04:30:52;15.20;99.90
24049;DHT22;12250;50.956;4.746;2023-07-20T04:33:18;15.30;99.90
24049;DHT22;12250;50.956;4.746;2023-07-20T04:35:54;15.50;99.90
24049;DHT22;12250;50.956;4.746;2023-07-20T04:38:20;15.60;99.90
24049;DHT22;12250;50.956;4.746;2023-07-20T04:40:48;15.60;99.90
24049;DHT22;12250;50.956;4.746;2023-07-20T04:43:17;15.70;99.90
24049;DHT22;12250;50.956;4.746;2023-07-20T04:45:43;15.90;99.90
24049;DHT22;12250;50.956;4.746;2023-07-20T04:48:10;16.10;99.90
24049;DHT22;12250;50.956;4.746;2023-07-20T04:50:37;16.20;99.90
24049;DHT22;12250;50.956;4.746;2023-07-20T04:53:03;16.20;99.90
24049;DHT22;12250;50.956;4.746;2023-07-20T04:55:29;16.30;99.90
24049;DHT22;12250;50.956;4.746;2023-07-20T04:57:54;16.40;99.90
24049;DHT22;12250;50.956;4.746;2023-07-20T05:00:20;16.50;99.90
24049;DHT22;12250;50.956;4.746;2023-07-20T05:02:47;16.50;99.90
24049;DHT22;12250;50.956;4.746;2023-07-20T05:05:15;16.50;99.90
24049;DHT22;12250;50.956;4.746;2023-07-20T05:07:40;16.50;99.90
24049;DHT22;12250;50.956;4.746;2023-07-20T05:10:06;16.50;99.90
24049;DHT22;12250;50.956;4.746;2023-07-20T05:12:32;16.60;99.90
24049;DHT22;12250;50.956;4.746;2023-07-20T05:14:58;16.70;99.90
24049;DHT22;12250;50.956;4.746;2023-07-20T05:17:24;16.80;99.90
24049;DHT22;12250;50.956;4.746;2023-07-20T05:19:50;16.80;99.90
24049;DHT22;12250;50.956;4.746;2023-07-20T05:22:16;16.90;99.90
24049;DHT22;12250;50.956;4.746;2023-07-20T05:24:42;16.90;99.90
24049;DHT22;12250;50.956;4.746;2023-07-20T05:27:08;17.00;99.90
24049;DHT22;12250;50.956;4.746;2023-07-20T05:29:33;17.10;99.90
24049;DHT22;12250;50.956;4.746;2023-07-20T05:31:59;17.20;99.90
24049;DHT22;12250;50.956;4.746;2023-07-20T05:34:25;17.30;99.90
24049;DHT22;12250;50.956;4.746;2023-07-20T05:36:50;17.20;99.90
24049;DHT22;12250;50.956;4.746;2023-07-20T05:39:17;17.30;99.90
24049;DHT22;12250;50.956;4.746;2023-07-20T05:41:43;17.30;99.90
24049;DHT22;12250;50.956;4.746;2023-07-20T05:44:09;17.40;99.90
24049;DHT22;12250;50.956;4.746;2023-07-20T05:46:34;17.50;99.90
24049;DHT22;12250;50.956;4.746;2023-07-20T05:49:00;17.60;99.90
24049;DHT22;12250;50.956;4.746;2023-07-20T05:51:27;17.60;99.90
24049;DHT22;12250;50.956;4.746;2023-07-20T05:53:53;17.60;99.90
24049;DHT22;12250;50.956;4.746;2023-07-20T05:56:18;17.70;99.90
24049;DHT22;12250;50.956;4.746;2023-07-20T05:58:44;17.70;99.90
24049;DHT22;12250;50.956;4.746;2023-07-20T06:01:10;17.90;99.90
24049;DHT22;12250;50.956;4.746;2023-07-20T06:03:35;18.00;99.90
24049;DHT22;12250;50.956;4.746;2023-07-20T06:06:03;18.00;99.90
24049;DHT22;12250;50.956;4.746;2023-07-20T06:08:32;18.10;99.90
24049;DHT22;12250;50.956;4.746;2023-07-20T06:10:58;18.20;99.90
24049;DHT22;12250;50.956;4.746;2023-07-20T06:13:23;18.20;99.90
24049;DHT22;12250;50.956;4.746;2023-07-20T06:15:50;18.30;99.90
24049;DHT22;12250;50.956;4.746;2023-07-20T06:18:16;18.40;99.90
24049;DHT22;12250;50.956;4.746;2023-07-20T06:20:42;18.40;99.90
24049;DHT22;12250;50.956;4.746;2023-07-20T06:23:07;18.60;99.90
24049;DHT22;12250;50.956;4.746;2023-07-20T06:25:33;18.60;99.90
24049;DHT22;12250;50.956;4.746;2023-07-20T06:27:59;18.70;99.90
24049;DHT22;12250;50.956;4.746;2023-07-20T06:30:24;18.80;99.90
24049;DHT22;12250;50.956;4.746;2023-07-20T06:32:51;18.80;99.90
24049;DHT22;12250;50.956;4.746;2023-07-20T06:35:17;18.80;99.90
24049;DHT22;12250;50.956;4.746;2023-07-20T06:37:43;18.80;99.90
24049;DHT22;12250;50.956;4.746;2023-07-20T06:40:09;18.90;99.90
24049;DHT22;12250;50.956;4.746;2023-07-20T06:42:35;19.10;99.90
24049;DHT22;12250;50.956;4.746;2023-07-20T06:45:00;19.20;99.90
24049;DHT22;12250;50.956;4.746;2023-07-20T06:47:26;19.40;99.90
24049;DHT22;12250;50.956;4.746;2023-07-20T06:49:52;19.60;99.90
24049;DHT22;12250;50.956;4.746;2023-07-20T06:52:17;19.80;99.90
24049;DHT22;12250;50.956;4.746;2023-07-20T06:54:43;20.10;99.90
24049;DHT22;12250;50.956;4.746;2023-07-20T06:57:09;20.30;99.90
24049;DHT22;12250;50.956;4.746;2023-07-20T06:59:35;20.40;99.90
24049;DHT22;12250;50.956;4.746;2023-07-20T07:02:00;20.40;99.90
24049;DHT22;12250;50.956;4.746;2023-07-20T07:04:26;20.60;99.90
24049;DHT22;12250;50.956;4.746;2023-07-20T07:06:52;20.70;99.90
24049;DHT22;12250;50.956;4.746;2023-07-20T07:09:18;20.70;99.90
24049;DHT22;12250;50.956;4.746;2023-07-20T07:11:44;20.80;99.90
24049;DHT22;12250;50.956;4.746;2023-07-20T07:14:11;20.90;99.90
24049;DHT22;12250;50.956;4.746;2023-07-20T07:16:37;20.90;99.90
24049;DHT22;12250;50.956;4.746;2023-07-20T07:19:02;20.90;99.90
24049;DHT22;12250;50.956;4.746;2023-07-20T07:21:29;21.00;99.90
24049;DHT22;12250;50.956;4.746;2023-07-20T07:23:55;21.00;99.90
24049;DHT22;12250;50.956;4.746;2023-07-20T07:26:23;21.10;99.90
24049;DHT22;12250;50.956;4.746;2023-07-20T07:28:49;21.30;99.90
24049;DHT22;12250;50.956;4.746;2023-07-20T07:31:14;21.30;99.90
24049;DHT22;12250;50.956;4.746;2023-07-20T07:33:40;21.40;99.90
24049;DHT22;12250;50.956;4.746;2023-07-20T07:36:06;21.70;99.90
24049;DHT22;12250;50.956;4.746;2023-07-20T07:38:32;22.10;99.90
24049;DHT22;12250;50.956;4.746;2023-07-20T07:40:58;22.40;99.90
24049;DHT22;12250;50.956;4.746;2023-07-20T07:43:24;22.70;99.90
24049;DHT22;12250;50.956;4.746;2023-07-20T07:45:50;23.10;99.90
24049;DHT22;12250;50.956;4.746;2023-07-20T07:48:18;23.60;99.90
24049;DHT22;12250;50.956;4.746;2023-07-20T07:50:46;24.00;99.90
24049;DHT22;12250;50.956;4.746;2023-07-20T07:53:11;24.30;99.90
24049;DHT22;12250;50.956;4.746;2023-07-20T07:55:37;24.30;99.90
24049;DHT22;12250;50.956;4.746;2023-07-20T07:58:02;24.40;99.90
24049;DHT22;12250;50.956;4.746;2023-07-20T08:00:28;24.60;99.90
24049;DHT22;12250;50.956;4.746;2023-07-20T08:02:54;24.80;99.90
24049;DHT22;12250;50.956;4.746;2023-07-20T08:05:19;25.00;99.90
24049;DHT22;12250;50.956;4.746;2023-07-20T08:07:45;25.20;99.90
24049;DHT22;12250;50.956;4.746;2023-07-20T08:10:11;25.30;99.90
24049;DHT22;12250;50.956;4.746;2023-07-20T08:12:37;25.30;99.90
24049;DHT22;12250;50.956;4.746;2023-07-20T08:15:02;25.90;99.90
24049;DHT22;12250;50.956;4.746;2023-07-20T08:17:29;26.90;98.70
24049;DHT22;12250;50.956;4.746;2023-07-20T08:19:55;28.40;97.50
24049;DHT22;12250;50.956;4.746;2023-07-20T08:22:20;29.90;95.00
24049;DHT22;12250;50.956;4.746;2023-07-20T08:24:46;31.60;90.70
24049;DHT22;12250;50.956;4.746;2023-07-20T08:27:12;33.20;83.70
24049;DHT22;12250;50.956;4.746;2023-07-20T08:29:37;33.30;77.50
24049;DHT22;12250;50.956;4.746;2023-07-20T08:32:04;35.10;70.30
24049;DHT22;12250;50.956;4.746;2023-07-20T08:34:30;37.10;61.50
24049;DHT22;12250;50.956;4.746;2023-07-20T08:36:56;37.10;58.80
24049;DHT22;12250;50.956;4.746;2023-07-20T08:39:23;38.00;55.40
24049;DHT22;12250;50.956;4.746;2023-07-20T08:41:49;39.50;49.00
24049;DHT22;12250;50.956;4.746;2023-07-20T08:44:15;40.40;45.40
24049;DHT22;12250;50.956;4.746;2023-07-20T08:46:41;40.60;42.80
24049;DHT22;12250;50.956;4.746;2023-07-20T08:49:08;39.20;43.90
24049;DHT22;12250;50.956;4.746;2023-07-20T08:51:35;36.90;47.40
24049;DHT22;12250;50.956;4.746;2023-07-20T08:54:01;34.90;48.30
24049;DHT22;12250;50.956;4.746;2023-07-20T08:56:26;34.50;50.80
24049;DHT22;12250;50.956;4.746;2023-07-20T08:58:56;33.80;51.80
24049;DHT22;12250;50.956;4.746;2023-07-20T09:01:22;32.60;53.20
24049;DHT22;12250;50.956;4.746;2023-07-20T09:03:49;31.90;55.90
24049;DHT22;12250;50.956;4.746;2023-07-20T09:06:15;33.50;53.00
24049;DHT22;12250;50.956;4.746;2023-07-20T09:08:41;36.50;48.30
24049;DHT22;12250;50.956;4.746;2023-07-20T09:11:08;38.50;44.10
24049;DHT22;12250;50.956;4.746;2023-07-20T09:13:34;37.60;45.20
24049;DHT22;12250;50.956;4.746;2023-07-20T09:15:59;37.10;47.20
24049;DHT22;12250;50.956;4.746;2023-07-20T09:18:29;37.90;45.50
24049;DHT22;12250;50.956;4.746;2023-07-20T09:21:00;38.90;43.10
24049;DHT22;12250;50.956;4.746;2023-07-20T09:23:34;38.00;43.10
24049;DHT22;12250;50.956;4.746;2023-07-20T09:26:00;36.30;45.90
24049;DHT22;12250;50.956;4.746;2023-07-20T09:28:26;36.40;45.80
24049;DHT22;12250;50.956;4.746;2023-07-20T09:30:54;37.90;43.60
24049;DHT22;12250;50.956;4.746;2023-07-20T09:33:24;38.40;42.20
24049;DHT22;12250;50.956;4.746;2023-07-20T09:35:49;39.50;42.70
24049;DHT22;12250;50.956;4.746;2023-07-20T09:38:15;41.10;39.40
24049;DHT22;12250;50.956;4.746;2023-07-20T09:40:42;42.20;37.80
24049;DHT22;12250;50.956;4.746;2023-07-20T09:43:11;42.80;35.30
24049;DHT22;12250;50.956;4.746;2023-07-20T09:45:41;43.60;33.40
24049;DHT22;12250;50.956;4.746;2023-07-20T09:48:08;44.10;33.90
24049;DHT22;12250;50.956;4.746;2023-07-20T09:50:39;44.50;32.30
24049;DHT22;12250;50.956;4.746;2023-07-20T09:53:07;44.90;32.10
24049;DHT22;12250;50.956;4.746;2023-07-20T09:55:34;45.30;31.10
24049;DHT22;12250;50.956;4.746;2023-07-20T09:58:00;44.30;31.30
24049;DHT22;12250;50.956;4.746;2023-07-20T10:00:26;42.90;31.70
24049;DHT22;12250;50.956;4.746;2023-07-20T10:02:52;41.70;35.40
24049;DHT22;12250;50.956;4.746;2023-07-20T10:05:19;39.80;35.30
24049;DHT22;12250;50.956;4.746;2023-07-20T10:07:48;37.40;37.80
24049;DHT22;12250;50.956;4.746;2023-07-20T10:10:16;35.60;42.30
24049;DHT22;12250;50.956;4.746;2023-07-20T10:12:43;35.10;42.00
24049;DHT22;12250;50.956;4.746;2023-07-20T10:15:15;35.60;40.30
24049;DHT22;12250;50.956;4.746;2023-07-20T10:20:32;35.70;41.70
24049;DHT22;12250;50.956;4.746;2023-07-20T10:22:59;36.00;41.00
24049;DHT22;12250;50.956;4.746;2023-07-20T10:25:26;35.50;38.80
24049;DHT22;12250;50.956;4.746;2023-07-20T10:27:53;33.90;41.80
24049;DHT22;12250;50.956;4.746;2023-07-20T10:30:20;32.80;44.50
24049;DHT22;12250;50.956;4.746;2023-07-20T10:32:46;32.30;46.20
24049;DHT22;12250;50.956;4.746;2023-07-20T10:35:13;32.90;44.90
24049;DHT22;12250;50.956;4.746;2023-07-20T10:40:28;31.90;44.90
24049;DHT22;12250;50.956;4.746;2023-07-20T10:43:09;32.40;44.60
24049;DHT22;12250;50.956;4.746;2023-07-20T10:45:51;35.30;41.20
24049;DHT22;12250;50.956;4.746;2023-07-20T10:48:24;37.70;38.30
24049;DHT22;12250;50.956;4.746;2023-07-20T10:51:13;37.60;36.60
24049;DHT22;12250;50.956;4.746;2023-07-20T10:53:41;36.50;38.70
24049;DHT22;12250;50.956;4.746;2023-07-20T10:56:13;37.00;40.60
24049;DHT22;12250;50.956;4.746;2023-07-20T10:58:40;39.00;37.00
24049;DHT22;12250;50.956;4.746;2023-07-20T11:01:07;40.40;34.00
24049;DHT22;12250;50.956;4.746;2023-07-20T11:03:40;40.50;32.40
24049;DHT22;12250;50.956;4.746;2023-07-20T11:09:09;39.60;31.70
24049;DHT22;12250;50.956;4.746;2023-07-20T11:11:46;38.70;33.00
24049;DHT22;12250;50.956;4.746;2023-07-20T11:14:23;38.50;33.10
24049;DHT22;12250;50.956;4.746;2023-07-20T11:16:51;38.60;33.40
24049;DHT22;12250;50.956;4.746;2023-07-20T11:19:20;38.30;34.20
24049;DHT22;12250;50.956;4.746;2023-07-20T11:21:49;37.50;35.50
24049;DHT22;12250;50.956;4.746;2023-07-20T11:24:15;37.00;34.40
24049;DHT22;12250;50.956;4.746;2023-07-20T11:26:45;36.40;36.40
24049;DHT22;12250;50.956;4.746;2023-07-20T11:29:12;36.80;37.10
24049;DHT22;12250;50.956;4.746;2023-07-20T11:31:42;37.30;36.60
24049;DHT22;12250;50.956;4.746;2023-07-20T11:34:14;36.40;38.30
24049;DHT22;12250;50.956;4.746;2023-07-20T11:36:41;36.20;36.10
24049;DHT22;12250;50.956;4.746;2023-07-20T11:39:11;35.90;35.90
24049;DHT22;12250;50.956;4.746;2023-07-20T11:41:37;36.10;38.60
24049;DHT22;12250;50.956;4.746;2023-07-20T11:44:04;36.10;38.10
24049;DHT22;12250;50.956;4.746;2023-07-20T11:46:31;36.40;36.60
24049;DHT22;12250;50.956;4.746;2023-07-20T11:48:58;35.60;37.00
24049;DHT22;12250;50.956;4.746;2023-07-20T11:51:30;34.70;39.70
24049;DHT22;12250;50.956;4.746;2023-07-20T11:53:57;34.30;42.60
24049;DHT22;12250;50.956;4.746;2023-07-20T11:56:24;33.70;40.90
24049;DHT22;12250;50.956;4.746;2023-07-20T11:58:50;33.00;42.80
24049;DHT22;12250;50.956;4.746;2023-07-20T12:01:17;32.70;42.70
24049;DHT22;12250;50.956;4.746;2023-07-20T12:03:43;32.60;42.90
24049;DHT22;12250;50.956;4.746;2023-07-20T12:06:13;32.50;42.80
24049;DHT22;12250;50.956;4.746;2023-07-20T12:08:43;32.00;43.90
24049;DHT22;12250;50.956;4.746;2023-07-20T12:11:09;31.70;44.70
24049;DHT22;12250;50.956;4.746;2023-07-20T12:13:39;31.80;46.60
24049;DHT22;12250;50.956;4.746;2023-07-20T12:16:15;32.20;46.20
24049;DHT22;12250;50.956;4.746;2023-07-20T12:18:42;32.00;45.10
24049;DHT22;12250;50.956;4.746;2023-07-20T12:21:10;31.90;45.60
24049;DHT22;12250;50.956;4.746;2023-07-20T12:23:38;31.70;44.40
24049;DHT22;12250;50.956;4.746;2023-07-20T12:26:07;31.30;45.30
24049;DHT22;12250;50.956;4.746;2023-07-20T12:28:33;30.90;44.80
24049;DHT22;12250;50.956;4.746;2023-07-20T12:31:01;30.40;46.80
24049;DHT22;12250;50.956;4.746;2023-07-20T12:33:26;30.10;48.00
24049;DHT22;12250;50.956;4.746;2023-07-20T12:35:52;29.70;49.60
24049;DHT22;12250;50.956;4.746;2023-07-20T12:38:21;29.30;51.60
24049;DHT22;12250;50.956;4.746;2023-07-20T12:40:47;29.20;50.50
24049;DHT22;12250;50.956;4.746;2023-07-20T12:43:13;29.00;51.20
24049;DHT22;12250;50.956;4.746;2023-07-20T12:45:39;28.80;50.70
24049;DHT22;12250;50.956;4.746;2023-07-20T12:48:05;28.70;52.20
24049;DHT22;12250;50.956;4.746;2023-07-20T12:50:30;28.30;51.10
24049;DHT22;12250;50.956;4.746;2023-07-20T12:52:56;28.30;51.90
24049;DHT22;12250;50.956;4.746;2023-07-20T12:55:22;28.40;52.10
24049;DHT22;12250;50.956;4.746;2023-07-20T12:57:47;28.50;53.60
24049;DHT22;12250;50.956;4.746;2023-07-20T13:00:14;28.80;54.30
24049;DHT22;12250;50.956;4.746;2023-07-20T13:02:40;29.00;50.10
24049;DHT22;12250;50.956;4.746;2023-07-20T13:05:07;28.90;50.00
24049;DHT22;12250;50.956;4.746;2023-07-20T13:07:37;28.90;49.50
24049;DHT22;12250;50.956;4.746;2023-07-20T13:10:04;29.00;49.40
24049;DHT22;12250;50.956;4.746;2023-07-20T13:12:33;29.00;48.70
24049;DHT22;12250;50.956;4.746;2023-07-20T13:15:01;29.20;49.30
24049;DHT22;12250;50.956;4.746;2023-07-20T13:17:28;29.50;47.20
24049;DHT22;12250;50.956;4.746;2023-07-20T13:19:54;29.60;48.60
24049;DHT22;12250;50.956;4.746;2023-07-20T13:22:20;29.80;48.10
24049;DHT22;12250;50.956;4.746;2023-07-20T13:24:46;29.90;47.40
24049;DHT22;12250;50.956;4.746;2023-07-20T13:27:15;30.00;46.60
24049;DHT22;12250;50.956;4.746;2023-07-20T13:29:41;29.90;45.80
24049;DHT22;12250;50.956;4.746;2023-07-20T13:32:07;29.80;46.50
24049;DHT22;12250;50.956;4.746;2023-07-20T13:34:33;29.60;47.60
24049;DHT22;12250;50.956;4.746;2023-07-20T13:37:00;29.40;48.80
24049;DHT22;12250;50.956;4.746;2023-07-20T13:39:25;29.40;47.80
24049;DHT22;12250;50.956;4.746;2023-07-20T13:41:52;29.50;48.80
24049;DHT22;12250;50.956;4.746;2023-07-20T13:44:18;29.40;48.60
24049;DHT22;12250;50.956;4.746;2023-07-20T13:46:46;29.20;47.90
24049;DHT22;12250;50.956;4.746;2023-07-20T13:49:11;29.00;48.40
24049;DHT22;12250;50.956;4.746;2023-07-20T13:51:37;28.60;49.00
24049;DHT22;12250;50.956;4.746;2023-07-20T13:54:03;28.40;49.40
24049;DHT22;12250;50.956;4.746;2023-07-20T13:56:29;28.00;50.70
24049;DHT22;12250;50.956;4.746;2023-07-20T13:58:55;27.70;52.00
24049;DHT22;12250;50.956;4.746;2023-07-20T14:01:20;27.40;52.90
24049;DHT22;12250;50.956;4.746;2023-07-20T14:03:48;27.30;53.50
24049;DHT22;12250;50.956;4.746;2023-07-20T14:06:14;27.00;54.10
24049;DHT22;12250;50.956;4.746;2023-07-20T14:08:40;26.70;53.50
24049;DHT22;12250;50.956;4.746;2023-07-20T14:11:06;26.40;53.70
24049;DHT22;12250;50.956;4.746;2023-07-20T14:13:32;26.20;54.40
24049;DHT22;12250;50.956;4.746;2023-07-20T14:15:57;26.00;55.20
24049;DHT22;12250;50.956;4.746;2023-07-20T14:18:23;25.70;57.10
24049;DHT22;12250;50.956;4.746;2023-07-20T14:20:49;25.60;57.30
24049;DHT22;12250;50.956;4.746;2023-07-20T14:23:15;25.40;58.30
24049;DHT22;12250;50.956;4.746;2023-07-20T14:25:40;25.30;59.20
24049;DHT22;12250;50.956;4.746;2023-07-20T14:28:07;25.20;60.20
24049;DHT22;12250;50.956;4.746;2023-07-20T14:30:33;25.10;59.60
24049;DHT22;12250;50.956;4.746;2023-07-20T14:32:59;25.00;60.00
24049;DHT22;12250;50.956;4.746;2023-07-20T14:35:25;25.00;60.20
24049;DHT22;12250;50.956;4.746;2023-07-20T14:37:51;25.00;59.80
24049;DHT22;12250;50.956;4.746;2023-07-20T14:40:16;25.00;59.70
24049;DHT22;12250;50.956;4.746;2023-07-20T14:42:42;25.10;59.30
24049;DHT22;12250;50.956;4.746;2023-07-20T14:45:08;25.30;59.40
24049;DHT22;12250;50.956;4.746;2023-07-20T14:47:33;25.30;59.40
24049;DHT22;12250;50.956;4.746;2023-07-20T14:50:03;25.50;59.50
24049;DHT22;12250;50.956;4.746;2023-07-20T14:52:29;25.50;59.30
24049;DHT22;12250;50.956;4.746;2023-07-20T14:54:55;25.60;59.60
24049;DHT22;12250;50.956;4.746;2023-07-20T14:57:21;25.60;59.70
24049;DHT22;12250;50.956;4.746;2023-07-20T14:59:49;25.50;59.80
24049;DHT22;12250;50.956;4.746;2023-07-20T15:02:15;25.60;59.20
24049;DHT22;12250;50.956;4.746;2023-07-20T15:04:48;25.70;58.10
24049;DHT22;12250;50.956;4.746;2023-07-20T15:07:16;25.70;58.40
24049;DHT22;12250;50.956;4.746;2023-07-20T15:09:41;25.80;58.90
24049;DHT22;12250;50.956;4.746;2023-07-20T15:12:08;25.80;58.90
24049;DHT22;12250;50.956;4.746;2023-07-20T15:14:34;25.70;58.80
24049;DHT22;12250;50.956;4.746;2023-07-20T15:17:00;25.80;58.90
24049;DHT22;12250;50.956;4.746;2023-07-20T15:19:28;25.90;59.00
24049;DHT22;12250;50.956;4.746;2023-07-20T15:21:54;26.10;59.70
24049;DHT22;12250;50.956;4.746;2023-07-20T15:24:19;26.30;58.60
24049;DHT22;12250;50.956;4.746;2023-07-20T15:26:45;26.30;58.50
24049;DHT22;12250;50.956;4.746;2023-07-20T15:29:11;26.30;58.50
24049;DHT22;12250;50.956;4.746;2023-07-20T15:31:36;26.10;59.20
24049;DHT22;12250;50.956;4.746;2023-07-20T15:34:02;26.10;59.90
24049;DHT22;12250;50.956;4.746;2023-07-20T15:36:28;26.20;58.90
24049;DHT22;12250;50.956;4.746;2023-07-20T15:38:53;26.00;59.50
24049;DHT22;12250;50.956;4.746;2023-07-20T15:41:19;25.90;59.20
24049;DHT22;12250;50.956;4.746;2023-07-20T15:43:44;25.90;59.50
24049;DHT22;12250;50.956;4.746;2023-07-20T15:49:02;25.70;59.40
24049;DHT22;12250;50.956;4.746;2023-07-20T15:51:27;25.60;60.30